Terminal Aerodrome Forecast
Issued by NWS

Home | Current Version | Previous Version | Graphics & Text | Print | Product List | Glossary On
Versions: 1 2 3 4 5 6 7 8 9 10 11 12 13 14 15 16 17 18 19 20 21 22 23 24
518
FTUS43 KPAH 261423 AAC
TAFCGI
TAF AMD
KCGI 261423Z 2614/2712 20009KT P6SM VCTS OVC021CB
     FM261530 36006KT 6SM -SHRA OVC025
     FM261800 16010KT P6SM BKN025
     FM270100 18008KT P6SM BKN040=

USA.gov is the U.S. government's official web portal to all federal, state and local government web resources and services.